TimeEDT,TemperatureF,Dew PointF,Humidity,Sea Level PressureIn,VisibilityMPH,Wind Direction,Wind SpeedMPH,Gust SpeedMPH,PrecipitationIn,Events,Conditions,WindDirDegrees,DateUTC
12:00 AM,53.6,44.6,72,30.05,10.0,WNW,18.4,28.8,N/A,,Overcast,300,2013-04-25 04:00:00
12:20 AM,53.6,42.8,67,30.07,10.0,NW,18.4,25.3,N/A,,Overcast,320,2013-04-25 04:20:00
12:40 AM,51.8,41.0,67,30.09,10.0,NW,10.4,28.8,N/A,,Overcast,320,2013-04-25 04:40:00
1:00 AM,51.8,41.0,67,30.10,10.0,WNW,12.7,24.2,N/A,,Overcast,290,2013-04-25 05:00:00
1:20 AM,51.8,37.4,58,30.11,10.0,WNW,16.1,29.9,N/A,,Overcast,300,2013-04-25 05:20:00
1:40 AM,50.0,37.4,62,30.12,10.0,WNW,16.1,25.3,N/A,,Overcast,300,2013-04-25 05:40:00
2:00 AM,50.0,37.4,62,30.12,10.0,WNW,15.0,24.2,N/A,,Overcast,290,2013-04-25 06:00:00
2:20 AM,46.4,35.6,66,30.13,10.0,NW,18.4,-,N/A,,Mostly Cloudy,310,2013-04-25 06:20:00
2:40 AM,46.4,35.6,66,30.13,10.0,WNW,9.2,12.7,N/A,,Mostly Cloudy,290,2013-04-25 06:40:00
3:00 AM,46.4,33.8,62,30.15,10.0,West,12.7,19.6,N/A,,Overcast,280,2013-04-25 07:00:00
3:20 AM,46.4,33.8,62,30.15,10.0,NNW,15.0,25.3,N/A,,Overcast,330,2013-04-25 07:20:00
3:40 AM,44.6,33.8,66,30.16,10.0,NNW,13.8,-,N/A,,Overcast,340,2013-04-25 07:40:00
4:00 AM,44.6,33.8,66,30.18,10.0,NNW,11.5,-,N/A,,Overcast,330,2013-04-25 08:00:00
4:20 AM,44.6,33.8,66,30.19,10.0,NW,9.2,-,N/A,,Mostly Cloudy,320,2013-04-25 08:20:00
4:40 AM,44.6,33.8,66,30.20,10.0,NNW,4.6,-,N/A,,Scattered Clouds,340,2013-04-25 08:40:00
5:00 AM,42.8,33.8,70,30.21,10.0,NNW,3.5,-,N/A,,Scattered Clouds,340,2013-04-25 09:00:00
5:20 AM,41.0,33.8,76,30.22,10.0,Calm,Calm,-,N/A,,Mostly Cloudy,0,2013-04-25 09:20:00
5:40 AM,41.0,33.8,76,30.23,10.0,Calm,Calm,-,N/A,,Overcast,0,2013-04-25 09:40:00
6:00 AM,42.8,33.8,70,30.25,10.0,North,10.4,-,N/A,,Overcast,350,2013-04-25 10:00:00
6:20 AM,42.8,32.0,66,30.25,10.0,NW,11.5,-,N/A,,Mostly Cloudy,320,2013-04-25 10:20:00
6:40 AM,42.8,32.0,66,30.26,10.0,North,9.2,-,N/A,,Scattered Clouds,350,2013-04-25 10:40:00
6:45 AM,42.8,32.0,66,30.26,10.0,NW,8.1,-,N/A,,Scattered Clouds,320,2013-04-25 10:45:00
6:52 AM,44.6,33.8,66,30.27,10.0,NNW,5.8,-,N/A,,Clear,330,2013-04-25 10:52:00
7:47 AM,46.4,33.8,62,30.29,10.0,NNW,4.6,-,N/A,,Clear,340,2013-04-25 11:47:00
8:46 AM,46.4,33.8,62,30.30,10.0,NNW,6.9,-,N/A,,Clear,340,2013-04-25 12:46:00
9:55 AM,50.0,33.8,54,30.31,10.0,NW,9.2,-,N/A,,Clear,310,2013-04-25 13:55:00
10:50 AM,51.8,33.8,50,30.32,10.0,NW,5.8,-,N/A,,Clear,320,2013-04-25 14:50:00
11:45 AM,53.6,33.8,47,30.31,10.0,NNW,4.6,-,N/A,,Clear,330,2013-04-25 15:45:00
12:50 PM,55.4,35.6,47,30.29,10.0,WNW,4.6,-,N/A,,Clear,290,2013-04-25 16:50:00
1:55 PM,59.0,35.6,42,30.28,10.0,WNW,4.6,-,N/A,,Clear,290,2013-04-25 17:55:00
2:55 PM,60.8,32.0,34,30.26,10.0,NNW,5.8,-,N/A,,Clear,330,2013-04-25 18:55:00
3:50 PM,62.6,33.8,34,30.24,10.0,North,5.8,-,N/A,,Clear,350,2013-04-25 19:50:00
4:46 PM,62.6,33.8,34,30.23,10.0,West,4.6,-,N/A,,Clear,260,2013-04-25 20:46:00
5:55 PM,62.6,32.0,32,30.23,10.0,Calm,Calm,-,N/A,,Clear,0,2013-04-25 21:55:00
7:50 PM,57.2,33.8,41,30.23,10.0,Calm,Calm,-,N/A,,Clear,0,2013-04-25 23:50:00
9:05 PM,44.6,39.2,81,30.26,10.0,Calm,Calm,-,N/A,,Scattered Clouds,0,2013-04-26 01:05:00
9:25 PM,46.4,39.2,76,30.28,10.0,Calm,Calm,-,N/A,,Scattered Clouds,0,2013-04-26 01:25:00
9:45 PM,46.4,41.0,81,30.29,10.0,Calm,Calm,-,N/A,,Scattered Clouds,0,2013-04-26 01:45:00
10:05 PM,44.6,41.0,87,30.30,10.0,Calm,Calm,-,N/A,,Clear,0,2013-04-26 02:05:00
10:20 PM,41.0,39.2,93,30.32,10.0,Calm,Calm,-,N/A,,Scattered Clouds,0,2013-04-26 02:20:00
10:45 PM,46.4,41.0,81,30.32,10.0,Calm,Calm,-,N/A,,Overcast,0,2013-04-26 02:45:00
11:05 PM,44.6,39.2,81,30.32,10.0,SE,3.5,-,N/A,,Overcast,140,2013-04-26 03:05:00
11:25 PM,44.6,41.0,87,30.33,10.0,SE,3.5,-,N/A,,Overcast,140,2013-04-26 03:25:00
11:45 PM,44.6,41.0,87,30.33,10.0,Calm,Calm,-,N/A,,Overcast,0,2013-04-26 03:45:00